CheckWX is a tool to help pilots better visualize weather data.  It is not intended as a substitute for an official pre-flight weather briefing.

04:31:22 UTC

KPSC METAR
Tri-Cities Airport
Pasco, Washington, USA
Current

38 mins ago

KPSC 240353Z 25014G21KT 10SM SCT080 BKN120 32/07 A2982 RMK AO2 WSHFT 0240 SLP094 T03170067
Observed
Jul-24 @ 03:53 UTC
Wind
  • 250° at 14 KTS
  • Gusting to 21 KTS
Visibility
10 SM
Flight Rules
VFR
Cloud Levels
  • Scattered at 8,000' AGL
  • Broken at 12,000' AGL
Temperature
32°C / 90°F
Dewpoint
C / 45°F
Humidity
21%
Altimeter
29.82" Hg
Pressure
1009.82 hPa
Previous

2 hours ago

KPSC 240300Z 26012G19KT 10SM FEW120 33/09 A2980 RMK AO2 WSHFT 0240 T03330094
Observed
Jul-24 @ 03:00 UTC
Wind
  • 260° at 12 KTS
  • Gusting to 19 KTS
Visibility
10 SM
Flight Rules
VFR
Cloud Levels
  • Few at 12,000' AGL
Temperature
33°C / 91°F
Dewpoint
C / 48°F
Humidity
23%
Altimeter
29.8" Hg
Pressure
1009.12 hPa
Previous

2 hours ago

KPSC 240253Z 26013G22KT 10SM SCT120 34/09 A2980 RMK AO2 SLP087 T03390094 53008
Observed
Jul-24 @ 02:53 UTC
Wind
  • 260° at 13 KTS
  • Gusting to 22 KTS
Visibility
10 SM
Flight Rules
VFR
Cloud Levels
  • Scattered at 12,000' AGL
Temperature
34°C / 93°F
Dewpoint
C / 48°F
Humidity
21%
Altimeter
29.8" Hg
Pressure
1009.12 hPa